createdAt,value
2023-05-24T00:01:52.825Z,30.07
2023-05-24T00:04:42.063Z,30.75
2023-05-24T00:07:12.738Z,29.77
2023-05-24T00:09:43.335Z,29.50
2023-05-24T00:12:13.808Z,30.78
2023-05-24T00:14:44.358Z,29.88
2023-05-24T00:17:14.763Z,29.75
2023-05-24T00:19:45.226Z,30.23
2023-05-24T00:22:15.682Z,32.63
2023-05-24T00:24:46.124Z,33.49
2023-05-24T00:27:17.446Z,34.65
2023-05-24T00:29:48.094Z,32.49
2023-05-24T00:32:20.169Z,31.57
2023-05-24T00:34:54.312Z,32.41
2023-05-24T00:37:25.122Z,32.27
2023-05-24T00:39:55.751Z,31.49
2023-05-24T00:42:26.402Z,32.28
2023-05-24T00:44:56.990Z,33.01
2023-05-24T00:47:27.500Z,32.67
2023-05-24T00:49:58.614Z,33.17
2023-05-24T00:52:29.100Z,31.58
2023-05-24T00:55:00.107Z,31.41
2023-05-24T00:57:31.504Z,33.64
2023-05-24T01:00:02.592Z,33.83
2023-05-24T01:02:34.177Z,31.89
2023-05-24T01:05:05.951Z,32.74
2023-05-24T01:07:48.305Z,33.31
2023-05-24T01:10:24.034Z,32.49
2023-05-24T01:13:28.515Z,32.03
2023-05-24T01:16:07.348Z,32.21
2023-05-24T01:18:43.704Z,31.18
2023-05-24T01:21:16.025Z,31.94
2023-05-24T01:24:07.385Z,32.28
2023-05-24T01:26:45.221Z,31.36
2023-05-24T01:29:16.813Z,31.48
2023-05-24T01:31:47.667Z,31.99
2023-05-24T01:34:20.541Z,30.44
2023-05-24T01:36:51.651Z,30.45
2023-05-24T01:39:23.815Z,32.54
2023-05-24T01:42:25.624Z,32.45
2023-05-24T01:45:01.933Z,32.38
2023-05-24T01:48:13.685Z,30.67
2023-05-24T01:50:55.335Z,33.12
2023-05-24T01:53:34.280Z,30.30
2023-05-24T01:56:07.789Z,29.95
2023-05-24T01:58:40.809Z,29.81
2023-05-24T02:01:12.465Z,30.05
2023-05-24T02:03:43.404Z,29.98
2023-05-24T02:06:13.824Z,30.32
2023-05-24T02:08:44.278Z,29.55
2023-05-24T02:11:14.692Z,29.48
2023-05-24T02:13:45.386Z,28.92
2023-05-24T02:16:15.951Z,29.12
2023-05-24T02:19:04.321Z,28.74
2023-05-24T02:21:53.048Z,28.80
2023-05-24T02:24:23.574Z,29.60
2023-05-24T02:26:54.084Z,29.47
2023-05-24T02:29:25.282Z,29.32
2023-05-24T02:31:58.213Z,29.05
2023-05-24T02:34:29.026Z,28.58
2023-05-24T02:36:59.438Z,29.29
2023-05-24T02:39:30.194Z,28.18
2023-05-24T02:42:00.873Z,28.85
2023-05-24T02:44:31.338Z,29.04
2023-05-24T02:47:01.937Z,28.58
2023-05-24T02:49:32.453Z,29.00
2023-05-24T02:52:02.876Z,28.96
2023-05-24T02:54:33.184Z,28.88
2023-05-24T02:57:04.354Z,29.15
2023-05-24T02:59:36.090Z,28.99
2023-05-24T03:02:06.855Z,28.84
2023-05-24T03:04:37.370Z,29.78
2023-05-24T03:07:08.815Z,28.30
2023-05-24T03:09:39.281Z,28.62
2023-05-24T03:12:27.835Z,28.84
2023-05-24T03:14:58.497Z,28.54
2023-05-24T03:17:29.043Z,29.77
2023-05-24T03:19:59.593Z,29.22
2023-05-24T03:22:48.270Z,28.59
2023-05-24T03:25:18.794Z,28.55
2023-05-24T03:27:49.951Z,28.76
2023-05-24T03:30:21.895Z,28.76
2023-05-24T03:32:56.667Z,28.48
2023-05-24T03:35:27.293Z,28.37
2023-05-24T03:37:59.357Z,28.21
2023-05-24T03:40:34.074Z,28.58
2023-05-24T03:43:16.110Z,29.85
2023-05-24T03:45:53.704Z,28.32
2023-05-24T03:48:24.459Z,28.44
2023-05-24T03:50:55.490Z,29.02
2023-05-24T03:53:25.938Z,31.44
2023-05-24T03:55:57.616Z,31.99
2023-05-24T03:58:28.161Z,31.36
2023-05-24T04:00:58.739Z,30.98
2023-05-24T04:03:30.052Z,30.39
2023-05-24T04:06:00.570Z,31.35
2023-05-24T04:08:30.976Z,32.84
2023-05-24T04:11:01.446Z,34.98
2023-05-24T04:13:32.344Z,33.24
2023-05-24T04:16:02.890Z,32.94
2023-05-24T04:18:33.583Z,33.03
2023-05-24T04:21:04.134Z,34.13
2023-05-24T04:23:35.130Z,33.41
2023-05-24T04:26:05.596Z,33.27
2023-05-24T04:28:37.458Z,33.80
2023-05-24T04:31:11.543Z,32.88
2023-05-24T04:33:43.286Z,33.77
2023-05-24T04:36:14.881Z,33.86
2023-05-24T04:38:47.303Z,33.41
2023-05-24T04:41:17.829Z,33.54
2023-05-24T04:43:48.604Z,34.18
2023-05-24T04:46:18.953Z,33.66
2023-05-24T04:48:49.843Z,33.80
2023-05-24T04:51:20.601Z,34.52
2023-05-24T04:53:51.056Z,34.27
2023-05-24T04:56:21.655Z,33.25
2023-05-24T04:58:52.042Z,33.63
2023-05-24T05:01:23.216Z,34.41
2023-05-24T05:03:53.866Z,33.99
2023-05-24T05:06:24.431Z,35.83
2023-05-24T05:08:55.158Z,35.51
2023-05-24T05:11:25.632Z,34.93
2023-05-24T05:13:56.350Z,32.47
2023-05-24T05:16:26.918Z,33.60
2023-05-24T05:18:57.506Z,35.07
2023-05-24T05:21:28.069Z,34.30
2023-05-24T05:23:58.608Z,32.31
2023-05-24T05:26:32.612Z,35.84
2023-05-24T05:29:03.129Z,33.83
2023-05-24T05:31:33.606Z,35.42
2023-05-24T05:34:04.250Z,34.91
2023-05-24T05:36:34.853Z,35.06
2023-05-24T05:39:05.165Z,34.53
2023-05-24T05:41:35.547Z,34.29
2023-05-24T05:44:06.019Z,30.42
2023-05-24T05:46:36.519Z,33.35
2023-05-24T05:49:08.444Z,34.78
2023-05-24T05:51:40.351Z,33.34
2023-05-24T05:54:15.863Z,31.23
2023-05-24T05:56:49.482Z,34.66
2023-05-24T05:59:21.410Z,34.61
2023-05-24T06:01:52.438Z,32.93
2023-05-24T06:04:22.754Z,30.65
2023-05-24T06:06:53.666Z,30.88
2023-05-24T06:09:24.200Z,31.41
2023-05-24T06:11:54.631Z,31.61
2023-05-24T06:14:26.642Z,31.73
2023-05-24T06:16:58.090Z,31.86
2023-05-24T06:19:30.539Z,31.82
2023-05-24T06:22:01.817Z,32.43
2023-05-24T06:24:32.409Z,31.98
2023-05-24T06:27:05.265Z,32.45
2023-05-24T06:29:36.008Z,31.53
2023-05-24T06:32:07.123Z,31.52
2023-05-24T06:34:37.688Z,32.28
2023-05-24T06:37:11.804Z,33.22
2023-05-24T06:39:42.705Z,32.50
2023-05-24T06:42:13.165Z,32.92
2023-05-24T06:44:48.373Z,32.18
2023-05-24T06:47:19.150Z,32.17
2023-05-24T06:49:50.488Z,32.57
2023-05-24T06:52:20.902Z,32.43
2023-05-24T06:54:52.393Z,32.23
2023-05-24T06:57:23.274Z,32.30
2023-05-24T06:59:53.712Z,32.64
2023-05-24T07:02:28.122Z,32.32
2023-05-24T07:04:58.717Z,32.28
2023-05-24T07:07:29.150Z,32.24
2023-05-24T07:09:59.729Z,32.54
2023-05-24T07:12:30.194Z,32.31
2023-05-24T07:15:00.772Z,32.64
2023-05-24T07:17:31.284Z,32.55
2023-05-24T07:20:03.811Z,32.73
2023-05-24T07:22:33.618Z,32.51
2023-05-24T07:25:04.382Z,32.55
2023-05-24T07:27:34.838Z,32.31
2023-05-24T07:30:09.518Z,32.79
2023-05-24T07:32:47.892Z,31.88
2023-05-24T07:35:18.487Z,32.40
2023-05-24T07:37:49.393Z,32.78
2023-05-24T07:40:19.926Z,32.30
2023-05-24T07:42:50.612Z,32.32
2023-05-24T07:45:21.228Z,32.68
2023-05-24T07:47:53.212Z,32.92
2023-05-24T07:50:24.812Z,32.93
2023-05-24T07:52:56.150Z,32.84
2023-05-24T07:55:26.605Z,32.45
2023-05-24T07:57:58.143Z,32.52
2023-05-24T08:00:29.311Z,32.84
2023-05-24T08:02:59.804Z,32.60
2023-05-24T08:05:30.505Z,32.55
2023-05-24T08:08:00.989Z,33.12
2023-05-24T08:10:31.531Z,32.73
2023-05-24T08:13:02.188Z,32.82
2023-05-24T08:15:32.747Z,32.29
2023-05-24T08:18:03.200Z,32.07
2023-05-24T08:20:37.574Z,32.18
2023-05-24T08:23:26.118Z,32.18
2023-05-24T08:25:56.698Z,31.78
2023-05-24T08:28:27.147Z,32.59
2023-05-24T08:30:58.857Z,32.07
2023-05-24T08:33:30.607Z,32.11
2023-05-24T08:36:01.067Z,31.98
2023-05-24T08:38:31.542Z,31.75
2023-05-24T08:41:02.358Z,31.81
2023-05-24T08:43:33.012Z,31.31
2023-05-24T08:46:05.266Z,31.62
2023-05-24T08:48:55.060Z,32.16
2023-05-24T08:51:26.372Z,32.06
2023-05-24T08:53:57.730Z,31.99
2023-05-24T08:56:30.492Z,31.95
2023-05-24T08:59:00.878Z,31.66
2023-05-24T09:01:34.620Z,31.50
2023-05-24T09:04:08.325Z,31.16
2023-05-24T09:06:39.228Z,31.85
2023-05-24T09:09:10.972Z,30.85
2023-05-24T09:11:44.875Z,31.39
2023-05-24T09:14:16.515Z,31.73
2023-05-24T09:16:47.127Z,31.87
2023-05-24T09:19:18.561Z,31.30
2023-05-24T09:21:51.013Z,31.67
2023-05-24T09:24:21.881Z,31.88
2023-05-24T09:26:55.559Z,31.38
2023-05-24T09:29:26.226Z,31.41
2023-05-24T09:31:59.141Z,31.56
2023-05-24T09:34:29.672Z,31.25
2023-05-24T09:37:00.181Z,31.19
2023-05-24T09:39:31.037Z,31.53
2023-05-24T09:42:01.273Z,31.58
2023-05-24T09:44:31.670Z,30.92
2023-05-24T09:47:09.119Z,31.81
2023-05-24T09:49:40.327Z,31.62
2023-05-24T09:52:10.810Z,32.57
2023-05-24T09:54:43.259Z,31.81
2023-05-24T09:57:13.758Z,31.17
2023-05-24T09:59:45.765Z,31.71
2023-05-24T10:02:17.660Z,32.00
2023-05-24T10:04:48.664Z,31.99
2023-05-24T10:07:20.016Z,32.39
2023-05-24T10:09:51.673Z,32.23
2023-05-24T10:12:24.698Z,32.60
2023-05-24T10:14:59.004Z,32.17
2023-05-24T10:17:30.400Z,32.39
2023-05-24T10:20:00.910Z,32.38
2023-05-24T10:22:32.057Z,32.49
2023-05-24T10:25:03.103Z,32.50
2023-05-24T10:27:34.895Z,32.05
2023-05-24T10:30:23.685Z,32.33
2023-05-24T10:32:55.977Z,32.54
2023-05-24T10:35:28.963Z,31.91
2023-05-24T10:37:59.614Z,32.26
2023-05-24T10:40:30.229Z,32.13
2023-05-24T10:43:00.800Z,32.07
2023-05-24T10:45:32.781Z,32.10
2023-05-24T10:48:32.013Z,32.12
2023-05-24T10:51:23.800Z,32.57
2023-05-24T10:53:54.180Z,32.26
2023-05-24T10:56:25.274Z,32.46
2023-05-24T10:59:01.282Z,32.18
2023-05-24T11:01:33.594Z,32.30
2023-05-24T11:04:18.397Z,32.23
2023-05-24T11:07:19.651Z,32.23
2023-05-24T11:09:58.478Z,32.17
2023-05-24T11:12:40.084Z,31.85
2023-05-24T11:15:14.118Z,31.83
2023-05-24T11:18:14.342Z,32.49
2023-05-24T11:21:05.487Z,32.23
2023-05-24T11:23:38.163Z,32.31
2023-05-24T11:26:09.383Z,32.09
2023-05-24T11:28:40.555Z,32.08
2023-05-24T11:31:11.546Z,32.07
2023-05-24T11:33:44.282Z,32.38
2023-05-24T11:36:14.872Z,31.98
2023-05-24T11:38:45.338Z,31.89
2023-05-24T11:41:15.948Z,31.75
2023-05-24T11:43:47.550Z,32.13
2023-05-24T11:46:21.897Z,31.99
2023-05-24T11:49:02.541Z,31.87
2023-05-24T11:51:34.742Z,32.08
2023-05-24T11:54:05.149Z,31.88
2023-05-24T11:56:35.541Z,32.24
2023-05-24T11:59:18.128Z,32.31
2023-05-24T12:01:48.726Z,31.41
2023-05-24T12:04:19.134Z,32.14
2023-05-24T12:06:49.824Z,31.72
2023-05-24T12:09:20.445Z,31.96
2023-05-24T12:11:52.556Z,32.08
2023-05-24T12:14:27.652Z,31.83
2023-05-24T12:16:58.903Z,31.53
2023-05-24T12:19:37.602Z,31.92
2023-05-24T12:22:09.642Z,32.14
2023-05-24T12:24:40.113Z,32.07
2023-05-24T12:27:11.652Z,32.51
2023-05-24T12:29:43.792Z,32.17
2023-05-24T12:32:15.096Z,31.83
2023-05-24T12:34:46.935Z,31.94
2023-05-24T12:37:17.679Z,31.77
2023-05-24T12:39:48.491Z,31.63
2023-05-24T12:42:18.865Z,32.62
2023-05-24T12:45:07.740Z,32.23
2023-05-24T12:47:38.691Z,32.48
2023-05-24T12:50:09.506Z,32.36
2023-05-24T12:52:40.301Z,32.33
2023-05-24T12:55:11.045Z,31.90
2023-05-24T12:57:42.306Z,32.17
2023-05-24T13:00:14.608Z,32.59
2023-05-24T13:02:45.286Z,31.73
2023-05-24T13:05:15.820Z,32.36
2023-05-24T13:07:47.402Z,32.17
2023-05-24T13:10:17.830Z,32.43
2023-05-24T13:12:48.930Z,32.31
2023-05-24T13:15:21.017Z,32.18
2023-05-24T13:17:51.529Z,32.32
2023-05-24T13:20:23.962Z,32.22
2023-05-24T13:22:55.125Z,32.09
2023-05-24T13:25:25.740Z,32.56
2023-05-24T13:27:56.101Z,32.00
2023-05-24T13:30:29.421Z,32.20
2023-05-24T13:33:01.025Z,32.39
2023-05-24T13:35:32.794Z,32.19
2023-05-24T13:38:03.092Z,32.09
2023-05-24T13:40:33.901Z,32.08
2023-05-24T13:43:05.411Z,32.21
2023-05-24T13:45:36.054Z,31.89
2023-05-24T13:48:07.096Z,32.41
2023-05-24T13:50:38.964Z,31.76
2023-05-24T13:53:10.446Z,31.67
2023-05-24T13:55:41.009Z,32.10
2023-05-24T13:58:12.070Z,31.93
2023-05-24T14:00:44.177Z,32.03
2023-05-24T14:03:16.241Z,31.88
2023-05-24T14:05:46.719Z,32.20
2023-05-24T14:08:17.573Z,32.53
2023-05-24T14:10:51.350Z,32.04
2023-05-24T14:14:04.721Z,32.52
2023-05-24T14:16:13.224Z,32.20
2023-05-24T14:18:44.729Z,32.69
2023-05-24T14:21:15.130Z,32.27
2023-05-24T14:24:03.597Z,32.91
2023-05-24T14:26:34.021Z,32.23
2023-05-24T14:29:04.650Z,31.71
2023-05-24T14:31:37.211Z,32.03
2023-05-24T14:34:07.741Z,31.66
2023-05-24T14:36:40.093Z,32.53
2023-05-24T14:39:09.926Z,32.19
2023-05-24T14:41:40.253Z,32.75
2023-05-24T14:44:10.695Z,32.27
2023-05-24T14:46:43.204Z,32.02
2023-05-24T14:49:13.776Z,32.35
2023-05-24T14:51:44.246Z,32.68
2023-05-24T14:54:14.679Z,32.90
2023-05-24T14:56:45.171Z,32.09
2023-05-24T14:59:16.177Z,32.22
2023-05-24T15:01:46.695Z,31.58
2023-05-24T15:04:17.419Z,32.09
2023-05-24T15:06:47.997Z,31.98
2023-05-24T15:09:18.456Z,32.10
2023-05-24T15:11:49.216Z,31.64
2023-05-24T15:14:19.813Z,32.13
2023-05-24T15:16:51.154Z,31.91
2023-05-24T15:19:21.779Z,32.04
2023-05-24T15:21:52.375Z,31.82
2023-05-24T15:24:22.802Z,32.48
2023-05-24T15:26:53.844Z,32.19
2023-05-24T15:29:24.403Z,32.58
2023-05-24T15:31:54.979Z,31.70
2023-05-24T15:34:25.460Z,31.70
2023-05-24T15:36:56.026Z,32.05
2023-05-24T15:39:26.425Z,31.64
2023-05-24T15:41:57.065Z,31.64
2023-05-24T15:44:27.466Z,32.12
2023-05-24T15:46:58.053Z,32.01
2023-05-24T15:49:28.781Z,31.35
2023-05-24T15:52:04.179Z,31.83
2023-05-24T15:54:35.359Z,31.89
2023-05-24T15:57:05.771Z,31.49
2023-05-24T15:59:38.377Z,31.58
2023-05-24T16:02:10.034Z,31.89
2023-05-24T16:04:40.864Z,31.89
2023-05-24T16:07:11.506Z,31.34
2023-05-24T16:09:41.790Z,31.61
2023-05-24T16:12:12.446Z,31.85
2023-05-24T16:14:42.834Z,31.44
2023-05-24T16:17:13.580Z,31.06
2023-05-24T16:19:44.415Z,31.48
2023-05-24T16:22:14.800Z,31.32
2023-05-24T16:24:46.324Z,31.57
2023-05-24T16:27:16.964Z,31.03
2023-05-24T16:29:48.409Z,31.08
2023-05-24T16:32:18.843Z,32.01
2023-05-24T16:34:56.911Z,31.36
2023-05-24T16:37:27.778Z,31.51
2023-05-24T16:39:58.225Z,31.79
2023-05-24T16:42:28.580Z,31.15
2023-05-24T16:44:59.091Z,31.12
2023-05-24T16:47:30.296Z,30.88
2023-05-24T16:50:00.828Z,31.50
2023-05-24T16:52:31.423Z,31.76
2023-05-24T16:55:02.062Z,31.49
2023-05-24T16:57:50.759Z,31.26
2023-05-24T17:00:21.645Z,32.16
2023-05-24T17:02:52.191Z,31.64
2023-05-24T17:05:22.868Z,31.50
2023-05-24T17:07:53.374Z,31.89
2023-05-24T17:10:23.989Z,31.81
2023-05-24T17:12:54.848Z,31.79
2023-05-24T17:15:25.341Z,31.39
2023-05-24T17:17:57.706Z,31.26
2023-05-24T17:20:28.335Z,31.29
2023-05-24T17:22:58.913Z,31.20
2023-05-24T17:25:30.419Z,31.35
2023-05-24T17:28:00.815Z,31.31
2023-05-24T17:30:31.945Z,31.31
2023-05-24T17:33:02.581Z,31.34
2023-05-24T17:35:33.126Z,31.48
2023-05-24T17:38:03.550Z,31.14
2023-05-24T17:40:34.014Z,31.07
2023-05-24T17:43:05.563Z,31.28
2023-05-24T17:45:36.117Z,31.23
2023-05-24T17:48:06.790Z,31.33
2023-05-24T17:50:37.817Z,31.11
2023-05-24T17:53:13.195Z,31.39
2023-05-24T17:55:53.720Z,31.33
2023-05-24T17:58:24.214Z,31.34
2023-05-24T18:00:54.999Z,31.28
2023-05-24T18:03:25.898Z,31.43
2023-05-24T18:05:56.521Z,31.34
2023-05-24T18:08:27.071Z,31.20
2023-05-24T18:10:57.484Z,31.45
2023-05-24T18:13:29.619Z,31.03
2023-05-24T18:16:00.005Z,31.30
2023-05-24T18:18:31.263Z,30.69
2023-05-24T18:21:02.098Z,31.28
2023-05-24T18:23:35.577Z,31.73
2023-05-24T18:26:15.045Z,31.15
2023-05-24T18:28:45.760Z,31.52
2023-05-24T18:31:16.450Z,31.19
2023-05-24T18:33:47.117Z,32.02
2023-05-24T18:36:17.575Z,31.29
2023-05-24T18:38:48.892Z,31.38
2023-05-24T18:41:19.953Z,31.56
2023-05-24T18:43:50.564Z,31.38
2023-05-24T18:46:21.067Z,31.22
2023-05-24T18:48:51.610Z,30.65
2023-05-24T18:51:22.076Z,31.48
2023-05-24T18:53:53.280Z,31.10
2023-05-24T18:56:24.385Z,31.16
2023-05-24T18:58:55.800Z,31.64
2023-05-24T19:01:26.947Z,31.11
2023-05-24T19:03:57.663Z,31.66
2023-05-24T19:06:28.196Z,31.17
2023-05-24T19:08:58.694Z,31.04
2023-05-24T19:11:29.799Z,31.24
2023-05-24T19:14:00.202Z,31.27
2023-05-24T19:16:30.886Z,31.49
2023-05-24T19:19:01.707Z,31.14
2023-05-24T19:21:34.683Z,31.31
2023-05-24T19:24:05.125Z,31.36
2023-05-24T19:26:35.555Z,31.60
2023-05-24T19:29:06.166Z,31.00
2023-05-24T19:31:37.763Z,31.17
2023-05-24T19:34:08.248Z,31.26
2023-05-24T19:36:38.820Z,30.34
2023-05-24T19:39:09.376Z,30.22
2023-05-24T19:41:40.071Z,28.33
2023-05-24T19:44:10.979Z,29.19
2023-05-24T19:46:41.364Z,29.89
2023-05-24T19:49:13.664Z,28.49
2023-05-24T19:51:44.095Z,29.80
2023-05-24T19:54:15.257Z,28.72
2023-05-24T19:56:47.279Z,28.95
2023-05-24T19:59:17.743Z,28.76
2023-05-24T20:01:48.163Z,28.08
2023-05-24T20:04:19.025Z,30.23
2023-05-24T20:06:49.715Z,30.54
2023-05-24T20:09:20.360Z,28.27
2023-05-24T20:11:50.996Z,28.38
2023-05-24T20:14:21.477Z,28.97
2023-05-24T20:16:51.886Z,29.44
2023-05-24T20:19:23.695Z,30.07
2023-05-24T20:21:54.457Z,28.86
2023-05-24T20:24:24.946Z,30.44
2023-05-24T20:26:55.345Z,28.03
2023-05-24T20:29:25.734Z,29.51
2023-05-24T20:31:56.210Z,29.93
2023-05-24T20:34:26.672Z,29.37
2023-05-24T20:36:57.214Z,29.59
2023-05-24T20:39:27.867Z,29.99
2023-05-24T20:41:58.674Z,29.03
2023-05-24T20:44:29.230Z,29.58
2023-05-24T20:46:59.653Z,30.63
2023-05-24T20:49:30.173Z,30.80
2023-05-24T20:52:00.805Z,29.02
2023-05-24T20:54:32.513Z,28.02
2023-05-24T20:57:03.539Z,28.81
2023-05-24T20:59:33.953Z,28.13
2023-05-24T21:02:04.365Z,28.02
2023-05-24T21:04:34.867Z,27.96
2023-05-24T21:07:05.409Z,29.34
2023-05-24T21:09:36.133Z,30.56
2023-05-24T21:12:07.877Z,28.94
2023-05-24T21:14:38.406Z,29.27
2023-05-24T21:17:08.829Z,29.58
2023-05-24T21:19:39.154Z,30.09
2023-05-24T21:22:09.716Z,30.37
2023-05-24T21:24:40.184Z,30.84
2023-05-24T21:27:11.016Z,31.47
2023-05-24T21:29:43.238Z,30.86
2023-05-24T21:32:32.026Z,30.14
2023-05-24T21:35:02.706Z,31.01
2023-05-24T21:37:33.169Z,31.01
2023-05-24T21:40:03.600Z,29.67
2023-05-24T21:42:34.170Z,31.02
2023-05-24T21:45:04.432Z,31.26
2023-05-24T21:47:36.885Z,30.96
2023-05-24T21:50:07.755Z,30.92
2023-05-24T21:52:38.212Z,31.23
2023-05-24T21:55:09.002Z,30.98
2023-05-24T21:57:39.697Z,30.95
2023-05-24T22:00:10.813Z,31.17
2023-05-24T22:02:41.291Z,30.98
2023-05-24T22:05:12.073Z,31.11
2023-05-24T22:08:00.618Z,31.00
2023-05-24T22:10:31.342Z,31.09
2023-05-24T22:13:02.068Z,30.01
2023-05-24T22:15:32.838Z,28.80
2023-05-24T22:18:03.395Z,29.27
2023-05-24T22:20:34.098Z,27.77
2023-05-24T22:23:04.978Z,29.60
2023-05-24T22:25:35.431Z,28.72
2023-05-24T22:28:07.018Z,27.97
2023-05-24T22:30:38.694Z,29.41
2023-05-24T22:33:09.170Z,29.23
2023-05-24T22:35:39.591Z,29.23
2023-05-24T22:38:10.176Z,31.19
2023-05-24T22:40:43.543Z,29.57
2023-05-24T22:43:13.927Z,31.19
2023-05-24T22:45:44.707Z,30.52
2023-05-24T22:48:15.394Z,30.76
2023-05-24T22:50:45.835Z,29.76
2023-05-24T22:53:18.691Z,30.24
2023-05-24T22:55:49.317Z,30.07
2023-05-24T22:58:22.999Z,31.22
2023-05-24T23:00:53.849Z,30.87
2023-05-24T23:03:24.394Z,32.96
2023-05-24T23:05:55.310Z,33.59
2023-05-24T23:08:27.208Z,31.02
2023-05-24T23:10:59.661Z,33.67
2023-05-24T23:13:34.598Z,33.61
2023-05-24T23:16:06.875Z,33.91
2023-05-24T23:18:39.173Z,32.79
2023-05-24T23:21:11.686Z,33.68
2023-05-24T23:23:42.604Z,33.77
2023-05-24T23:26:13.043Z,35.38
2023-05-24T23:28:44.804Z,34.09
2023-05-24T23:31:15.301Z,34.95
2023-05-24T23:33:45.853Z,32.72
2023-05-24T23:36:16.293Z,33.04
2023-05-24T23:38:47.188Z,31.96
2023-05-24T23:41:17.878Z,32.18
2023-05-24T23:43:48.351Z,33.38
2023-05-24T23:46:18.951Z,33.23
2023-05-24T23:48:49.436Z,34.15
2023-05-24T23:51:21.723Z,32.96
2023-05-24T23:53:52.298Z,32.76
2023-05-24T23:56:23.021Z,35.16
2023-05-24T23:58:54.581Z,33.27
